Amber Lagoon — V7FS4 — position and weather

sailwx.info

Track history (hours):
 
Tides and Currents Weather Stations Pressure Air Temp Water Temp Dewpoint Dewpoint Depression Visibility Wind Speed Wind Dir Waves Ship Positions

Amber Lagoon

Last reported at 2014-Nov-26 12:31 UTC. Time now 2014-Nov-27 02:54 UTC.
Position S 34°03' E 018°14'.

Length 192 m; draft 11.3 m.

Type: Cargo ship. MMSI: 538090116.

Date/timePositionNaut miles runAvg speedWind from/ knotsBaromVisibWave heightAir tempDewpointWater temp
2014-Nov-26 12:31S 34°03' E 018°14'46614.5
2014-Nov-25 04:26S 33°34' E 027°35'1818.3
2014-Nov-25 03:26S 33°22' E 027°52'25416.0
2014-Nov-24 11:33S 30°06' E 031°00'1010.2
2014-Nov-24 10:33S 29°56' E 031°04'4 3.8
2014-Nov-24 09:33S 29°53' E 031°03'0 0.4
2014-Nov-24 08:24S 29°52' E 031°03'0 0.0
2014-Nov-24 07:30S 29°52' E 031°03'0 0.0
2014-Nov-24 06:30S 29°52' E 031°03'0 0.0
2014-Nov-24 05:30S 29°52' E 031°03'0 0.0
2014-Nov-24 04:30S 29°52' E 031°03'0 0.0
2014-Nov-24 03:30S 29°52' E 031°03'0 0.0
2014-Nov-24 02:30S 29°52' E 031°03'0 0.0
2014-Nov-24 01:24S 29°52' E 031°03'0 0.0
2014-Nov-24 00:24S 29°52' E 031°03'0 0.0
2014-Nov-23 23:30S 29°52' E 031°03'0 0.0
2014-Nov-23 22:30S 29°52' E 031°03'0 0.0
2014-Nov-23 21:30S 29°52' E 031°03'0 0.0
2014-Nov-23 20:30S 29°52' E 031°03'0 0.0
2014-Nov-23 19:30S 29°52' E 031°03'0 0.0
2014-Nov-23 18:30S 29°52' E 031°03'0 0.0
2014-Nov-23 17:24S 29°52' E 031°03'0 0.0
2014-Nov-23 16:30S 29°52' E 031°03'0 0.0
2014-Nov-23 15:33S 29°52' E 031°03'0 0.0
2014-Nov-23 14:33S 29°52' E 031°03'0 0.0
2014-Nov-23 13:33S 29°52' E 031°03'0 0.0
2014-Nov-23 12:33S 29°52' E 031°03'2 1.8
2014-Nov-23 11:33S 29°51' E 031°04'8 7.6
2014-Nov-23 10:33S 29°46' E 031°10'1 0.5
2014-Nov-23 09:30S 29°45' E 031°10'0 0.0
2014-Nov-23 08:33S 29°45' E 031°10'0 0.0
2014-Nov-23 07:30S 29°45' E 031°10'0 0.0
2014-Nov-23 06:33S 29°45' E 031°10'37 2.0
2014-Nov-22 12:14S 29°19' E 031°41'  
Track history (hours):
 
Tides and Currents Weather Stations Pressure Air Temp Water Temp Dewpoint Dewpoint Depression Visibility Wind Speed Wind Dir Waves Ship Positions

Amber Lagoon

Last reported at 2014-Nov-26 12:31 UTC. Time now 2014-Nov-27 02:54 UTC.
Position S 34°03' E 018°14'.

Length 192 m; draft 11.3 m.

Type: Cargo ship. MMSI: 538090116.

Date/timePositionNaut miles runAvg speedWind from/ knotsBaromVisibWave heightAir tempDewpointWater temp
2014-Nov-26 12:31S 34°03' E 018°14'46614.5
2014-Nov-25 04:26S 33°34' E 027°35'1818.3
2014-Nov-25 03:26S 33°22' E 027°52'25416.0
2014-Nov-24 11:33S 30°06' E 031°00'1010.2
2014-Nov-24 10:33S 29°56' E 031°04'4 3.8
2014-Nov-24 09:33S 29°53' E 031°03'0 0.4
2014-Nov-24 08:24S 29°52' E 031°03'0 0.0
2014-Nov-24 07:30S 29°52' E 031°03'0 0.0
2014-Nov-24 06:30S 29°52' E 031°03'0 0.0
2014-Nov-24 05:30S 29°52' E 031°03'0 0.0
2014-Nov-24 04:30S 29°52' E 031°03'0 0.0
2014-Nov-24 03:30S 29°52' E 031°03'0 0.0
2014-Nov-24 02:30S 29°52' E 031°03'0 0.0
2014-Nov-24 01:24S 29°52' E 031°03'0 0.0
2014-Nov-24 00:24S 29°52' E 031°03'0 0.0
2014-Nov-23 23:30S 29°52' E 031°03'0 0.0
2014-Nov-23 22:30S 29°52' E 031°03'0 0.0
2014-Nov-23 21:30S 29°52' E 031°03'0 0.0
2014-Nov-23 20:30S 29°52' E 031°03'0 0.0
2014-Nov-23 19:30S 29°52' E 031°03'0 0.0
2014-Nov-23 18:30S 29°52' E 031°03'0 0.0
2014-Nov-23 17:24S 29°52' E 031°03'0 0.0
2014-Nov-23 16:30S 29°52' E 031°03'0 0.0
2014-Nov-23 15:33S 29°52' E 031°03'0 0.0
2014-Nov-23 14:33S 29°52' E 031°03'0 0.0
2014-Nov-23 13:33S 29°52' E 031°03'0 0.0
2014-Nov-23 12:33S 29°52' E 031°03'2 1.8
2014-Nov-23 11:33S 29°51' E 031°04'8 7.6
2014-Nov-23 10:33S 29°46' E 031°10'1 0.5
2014-Nov-23 09:30S 29°45' E 031°10'0 0.0
2014-Nov-23 08:33S 29°45' E 031°10'0 0.0
2014-Nov-23 07:30S 29°45' E 031°10'0 0.0
2014-Nov-23 06:33S 29°45' E 031°10'37 2.0
2014-Nov-22 12:14S 29°19' E 031°41'  

Dump ship's entire track history